sensor_id;sensor_type;location;lat;lon;timestamp;P1;durP1;ratioP1;P2;durP2;ratioP2
53907;SDS011;40469;47.998;7.794;2023-07-29T00:00:41;0.98;;;0.45;;
53907;SDS011;40469;47.998;7.794;2023-07-29T00:03:07;2.42;;;0.63;;
53907;SDS011;40469;47.998;7.794;2023-07-29T00:05:33;1.98;;;0.50;;
53907;SDS011;40469;47.998;7.794;2023-07-29T00:07:58;1.00;;;0.47;;
53907;SDS011;40469;47.998;7.794;2023-07-29T00:10:23;1.58;;;0.60;;
53907;SDS011;40469;47.998;7.794;2023-07-29T00:12:49;1.60;;;0.50;;
53907;SDS011;40469;47.998;7.794;2023-07-29T00:15:14;1.38;;;0.63;;
53907;SDS011;40469;47.998;7.794;2023-07-29T00:17:39;2.03;;;0.73;;
53907;SDS011;40469;47.998;7.794;2023-07-29T00:20:06;3.17;;;0.90;;
53907;SDS011;40469;47.998;7.794;2023-07-29T00:22:32;5.07;;;0.95;;
53907;SDS011;40469;47.998;7.794;2023-07-29T00:24:58;1.67;;;0.63;;
53907;SDS011;40469;47.998;7.794;2023-07-29T00:27:24;3.17;;;0.90;;
53907;SDS011;40469;47.998;7.794;2023-07-29T00:29:50;2.53;;;0.65;;
53907;SDS011;40469;47.998;7.794;2023-07-29T00:32:16;2.85;;;0.80;;
53907;SDS011;40469;47.998;7.794;2023-07-29T00:34:41;2.90;;;0.70;;
53907;SDS011;40469;47.998;7.794;2023-07-29T00:37:06;2.53;;;0.70;;
53907;SDS011;40469;47.998;7.794;2023-07-29T00:39:32;1.73;;;0.60;;
53907;SDS011;40469;47.998;7.794;2023-07-29T00:41:57;1.05;;;0.60;;
53907;SDS011;40469;47.998;7.794;2023-07-29T00:44:23;1.77;;;0.50;;
53907;SDS011;40469;47.998;7.794;2023-07-29T00:46:49;1.42;;;0.57;;
53907;SDS011;40469;47.998;7.794;2023-07-29T00:49:18;0.85;;;0.40;;
53907;SDS011;40469;47.998;7.794;2023-07-29T00:51:45;0.90;;;0.47;;
53907;SDS011;40469;47.998;7.794;2023-07-29T00:54:10;1.70;;;0.60;;
53907;SDS011;40469;47.998;7.794;2023-07-29T00:56:35;2.25;;;0.50;;
53907;SDS011;40469;47.998;7.794;2023-07-29T00:59:01;0.75;;;0.40;;
53907;SDS011;40469;47.998;7.794;2023-07-29T01:01:27;0.93;;;0.60;;
53907;SDS011;40469;47.998;7.794;2023-07-29T01:03:54;1.60;;;0.57;;
53907;SDS011;40469;47.998;7.794;2023-07-29T01:09:17;0.75;;;0.40;;
53907;SDS011;40469;47.998;7.794;2023-07-29T01:11:55;1.00;;;0.47;;
53907;SDS011;40469;47.998;7.794;2023-07-29T01:17:42;0.70;;;0.50;;
53907;SDS011;40469;47.998;7.794;2023-07-29T01:20:17;0.73;;;0.40;;
53907;SDS011;40469;47.998;7.794;2023-07-29T01:22:45;0.57;;;0.38;;
53907;SDS011;40469;47.998;7.794;2023-07-29T01:25:12;1.27;;;0.60;;
53907;SDS011;40469;47.998;7.794;2023-07-29T01:27:38;1.52;;;0.57;;
53907;SDS011;40469;47.998;7.794;2023-07-29T01:30:04;1.15;;;0.50;;
53907;SDS011;40469;47.998;7.794;2023-07-29T01:35:23;1.48;;;0.57;;
53907;SDS011;40469;47.998;7.794;2023-07-29T01:38:01;0.75;;;0.40;;
53907;SDS011;40469;47.998;7.794;2023-07-29T01:40:30;1.15;;;0.40;;
53907;SDS011;40469;47.998;7.794;2023-07-29T01:42:55;4.18;;;0.47;;
53907;SDS011;40469;47.998;7.794;2023-07-29T01:45:24;3.95;;;0.60;;
53907;SDS011;40469;47.998;7.794;2023-07-29T01:47:52;0.70;;;0.40;;
53907;SDS011;40469;47.998;7.794;2023-07-29T01:50:18;1.25;;;0.60;;
53907;SDS011;40469;47.998;7.794;2023-07-29T01:52:43;2.85;;;0.68;;
53907;SDS011;40469;47.998;7.794;2023-07-29T01:55:09;0.80;;;0.40;;
53907;SDS011;40469;47.998;7.794;2023-07-29T01:57:34;2.03;;;0.57;;
53907;SDS011;40469;47.998;7.794;2023-07-29T01:59:59;1.20;;;0.60;;
53907;SDS011;40469;47.998;7.794;2023-07-29T02:02:25;1.23;;;0.70;;
53907;SDS011;40469;47.998;7.794;2023-07-29T02:04:50;1.60;;;0.50;;
53907;SDS011;40469;47.998;7.794;2023-07-29T02:07:18;2.50;;;0.60;;
53907;SDS011;40469;47.998;7.794;2023-07-29T02:09:44;2.30;;;0.68;;
53907;SDS011;40469;47.998;7.794;2023-07-29T02:12:09;1.27;;;0.50;;
53907;SDS011;40469;47.998;7.794;2023-07-29T02:14:34;1.20;;;0.50;;
53907;SDS011;40469;47.998;7.794;2023-07-29T02:17:00;1.58;;;0.55;;
53907;SDS011;40469;47.998;7.794;2023-07-29T02:19:25;0.70;;;0.43;;
53907;SDS011;40469;47.998;7.794;2023-07-29T02:21:50;1.38;;;0.60;;
53907;SDS011;40469;47.998;7.794;2023-07-29T02:24:16;0.77;;;0.40;;
53907;SDS011;40469;47.998;7.794;2023-07-29T02:26:41;1.95;;;0.40;;
53907;SDS011;40469;47.998;7.794;2023-07-29T02:29:06;1.58;;;0.60;;
53907;SDS011;40469;47.998;7.794;2023-07-29T02:31:32;1.75;;;1.00;;
53907;SDS011;40469;47.998;7.794;2023-07-29T02:33:59;1.23;;;0.52;;
53907;SDS011;40469;47.998;7.794;2023-07-29T02:36:24;1.10;;;0.60;;
53907;SDS011;40469;47.998;7.794;2023-07-29T02:38:50;1.00;;;0.50;;
53907;SDS011;40469;47.998;7.794;2023-07-29T02:41:15;2.50;;;0.73;;
53907;SDS011;40469;47.998;7.794;2023-07-29T02:43:41;1.58;;;0.60;;
53907;SDS011;40469;47.998;7.794;2023-07-29T02:46:07;0.68;;;0.30;;
53907;SDS011;40469;47.998;7.794;2023-07-29T02:48:33;1.13;;;0.65;;
53907;SDS011;40469;47.998;7.794;2023-07-29T02:50:58;2.58;;;0.50;;
53907;SDS011;40469;47.998;7.794;2023-07-29T02:53:24;0.75;;;0.55;;
53907;SDS011;40469;47.998;7.794;2023-07-29T02:55:50;0.90;;;0.57;;
53907;SDS011;40469;47.998;7.794;2023-07-29T02:58:15;1.08;;;0.50;;
53907;SDS011;40469;47.998;7.794;2023-07-29T03:00:40;3.65;;;0.60;;
53907;SDS011;40469;47.998;7.794;2023-07-29T03:03:07;5.88;;;0.82;;
53907;SDS011;40469;47.998;7.794;2023-07-29T03:05:33;1.20;;;0.50;;
53907;SDS011;40469;47.998;7.794;2023-07-29T03:07:58;0.95;;;0.52;;
53907;SDS011;40469;47.998;7.794;2023-07-29T03:10:24;1.20;;;0.60;;
53907;SDS011;40469;47.998;7.794;2023-07-29T03:12:50;2.72;;;0.85;;
53907;SDS011;40469;47.998;7.794;2023-07-29T03:15:16;2.65;;;0.70;;
53907;SDS011;40469;47.998;7.794;2023-07-29T03:17:41;0.80;;;0.60;;
53907;SDS011;40469;47.998;7.794;2023-07-29T03:20:07;1.05;;;0.55;;
53907;SDS011;40469;47.998;7.794;2023-07-29T03:22:33;2.25;;;0.75;;
53907;SDS011;40469;47.998;7.794;2023-07-29T03:24:58;1.25;;;0.65;;
53907;SDS011;40469;47.998;7.794;2023-07-29T03:27:23;0.70;;;0.50;;
53907;SDS011;40469;47.998;7.794;2023-07-29T03:29:49;2.58;;;0.70;;
53907;SDS011;40469;47.998;7.794;2023-07-29T03:32:14;1.13;;;0.60;;
53907;SDS011;40469;47.998;7.794;2023-07-29T03:34:39;1.30;;;0.55;;
53907;SDS011;40469;47.998;7.794;2023-07-29T03:37:05;1.67;;;0.73;;
53907;SDS011;40469;47.998;7.794;2023-07-29T03:39:31;2.30;;;0.60;;
53907;SDS011;40469;47.998;7.794;2023-07-29T03:41:56;1.40;;;0.70;;
53907;SDS011;40469;47.998;7.794;2023-07-29T03:44:22;1.40;;;0.60;;
53907;SDS011;40469;47.998;7.794;2023-07-29T03:46:47;0.98;;;0.55;;
53907;SDS011;40469;47.998;7.794;2023-07-29T03:49:13;0.93;;;0.50;;
53907;SDS011;40469;47.998;7.794;2023-07-29T03:51:38;1.55;;;0.60;;
53907;SDS011;40469;47.998;7.794;2023-07-29T03:54:03;0.77;;;0.45;;
53907;SDS011;40469;47.998;7.794;2023-07-29T03:56:28;1.42;;;0.85;;
53907;SDS011;40469;47.998;7.794;2023-07-29T03:59:00;1.15;;;0.73;;
53907;SDS011;40469;47.998;7.794;2023-07-29T04:01:30;1.15;;;0.60;;
53907;SDS011;40469;47.998;7.794;2023-07-29T04:03:56;0.88;;;0.43;;
53907;SDS011;40469;47.998;7.794;2023-07-29T04:06:21;2.20;;;0.80;;
53907;SDS011;40469;47.998;7.794;2023-07-29T04:08:47;1.77;;;0.63;;
53907;SDS011;40469;47.998;7.794;2023-07-29T04:11:13;1.95;;;0.73;;
53907;SDS011;40469;47.998;7.794;2023-07-29T04:13:38;3.50;;;0.80;;
53907;SDS011;40469;47.998;7.794;2023-07-29T04:16:04;2.28;;;0.75;;
53907;SDS011;40469;47.998;7.794;2023-07-29T04:18:30;2.40;;;0.90;;
53907;SDS011;40469;47.998;7.794;2023-07-29T04:20:55;2.92;;;1.30;;
53907;SDS011;40469;47.998;7.794;2023-07-29T04:23:20;2.35;;;1.17;;
53907;SDS011;40469;47.998;7.794;2023-07-29T04:25:46;2.80;;;1.17;;
53907;SDS011;40469;47.998;7.794;2023-07-29T04:28:11;2.50;;;1.10;;
53907;SDS011;40469;47.998;7.794;2023-07-29T04:30:37;1.92;;;0.75;;
53907;SDS011;40469;47.998;7.794;2023-07-29T04:33:05;1.05;;;0.70;;
53907;SDS011;40469;47.998;7.794;2023-07-29T04:35:30;4.15;;;0.63;;
53907;SDS011;40469;47.998;7.794;2023-07-29T04:37:55;2.22;;;0.85;;
53907;SDS011;40469;47.998;7.794;2023-07-29T04:40:21;1.55;;;0.70;;
53907;SDS011;40469;47.998;7.794;2023-07-29T04:42:48;1.52;;;0.77;;
53907;SDS011;40469;47.998;7.794;2023-07-29T04:45:13;1.67;;;0.77;;
53907;SDS011;40469;47.998;7.794;2023-07-29T04:47:38;0.70;;;0.50;;
53907;SDS011;40469;47.998;7.794;2023-07-29T04:50:04;2.03;;;0.70;;
53907;SDS011;40469;47.998;7.794;2023-07-29T04:52:31;1.23;;;0.65;;
53907;SDS011;40469;47.998;7.794;2023-07-29T04:54:56;1.05;;;0.68;;
53907;SDS011;40469;47.998;7.794;2023-07-29T04:57:21;1.35;;;0.60;;
53907;SDS011;40469;47.998;7.794;2023-07-29T04:59:47;2.28;;;1.00;;
53907;SDS011;40469;47.998;7.794;2023-07-29T05:02:12;1.20;;;0.70;;
53907;SDS011;40469;47.998;7.794;2023-07-29T05:04:38;1.70;;;0.90;;
53907;SDS011;40469;47.998;7.794;2023-07-29T05:07:03;4.65;;;0.85;;
53907;SDS011;40469;47.998;7.794;2023-07-29T05:09:28;1.83;;;0.82;;
53907;SDS011;40469;47.998;7.794;2023-07-29T05:11:54;1.58;;;0.80;;
53907;SDS011;40469;47.998;7.794;2023-07-29T05:14:19;2.10;;;0.77;;
53907;SDS011;40469;47.998;7.794;2023-07-29T05:16:44;2.55;;;0.85;;
53907;SDS011;40469;47.998;7.794;2023-07-29T05:19:10;2.33;;;1.00;;
53907;SDS011;40469;47.998;7.794;2023-07-29T05:21:37;2.03;;;0.90;;
53907;SDS011;40469;47.998;7.794;2023-07-29T05:24:03;1.88;;;0.93;;
53907;SDS011;40469;47.998;7.794;2023-07-29T05:26:28;3.45;;;1.05;;
53907;SDS011;40469;47.998;7.794;2023-07-29T05:28:54;1.50;;;0.82;;
53907;SDS011;40469;47.998;7.794;2023-07-29T05:31:19;2.08;;;1.00;;
53907;SDS011;40469;47.998;7.794;2023-07-29T05:33:44;1.98;;;0.80;;
53907;SDS011;40469;47.998;7.794;2023-07-29T05:36:10;2.35;;;0.80;;
53907;SDS011;40469;47.998;7.794;2023-07-29T05:38:35;3.63;;;0.82;;
53907;SDS011;40469;47.998;7.794;2023-07-29T05:41:00;1.33;;;0.70;;
53907;SDS011;40469;47.998;7.794;2023-07-29T05:43:26;4.28;;;1.02;;
53907;SDS011;40469;47.998;7.794;2023-07-29T05:45:52;1.35;;;0.80;;
53907;SDS011;40469;47.998;7.794;2023-07-29T05:48:18;1.42;;;0.80;;
53907;SDS011;40469;47.998;7.794;2023-07-29T05:50:44;1.60;;;0.80;;
53907;SDS011;40469;47.998;7.794;2023-07-29T05:53:10;4.18;;;1.23;;
53907;SDS011;40469;47.998;7.794;2023-07-29T05:55:35;1.75;;;0.65;;
53907;SDS011;40469;47.998;7.794;2023-07-29T05:58:00;1.73;;;0.65;;
53907;SDS011;40469;47.998;7.794;2023-07-29T06:00:26;2.72;;;1.05;;
53907;SDS011;40469;47.998;7.794;2023-07-29T06:02:51;1.60;;;0.60;;
53907;SDS011;40469;47.998;7.794;2023-07-29T06:05:16;2.42;;;1.00;;
53907;SDS011;40469;47.998;7.794;2023-07-29T06:07:42;1.90;;;0.80;;
53907;SDS011;40469;47.998;7.794;2023-07-29T06:10:10;1.73;;;0.82;;
53907;SDS011;40469;47.998;7.794;2023-07-29T06:12:42;1.67;;;0.85;;
53907;SDS011;40469;47.998;7.794;2023-07-29T06:15:08;1.40;;;0.73;;
53907;SDS011;40469;47.998;7.794;2023-07-29T06:17:34;2.08;;;1.05;;
53907;SDS011;40469;47.998;7.794;2023-07-29T06:19:59;1.80;;;0.80;;
53907;SDS011;40469;47.998;7.794;2023-07-29T06:22:24;1.33;;;0.75;;
53907;SDS011;40469;47.998;7.794;2023-07-29T06:24:49;1.48;;;0.80;;
53907;SDS011;40469;47.998;7.794;2023-07-29T06:27:15;1.77;;;0.93;;
53907;SDS011;40469;47.998;7.794;2023-07-29T06:29:40;1.35;;;0.68;;
53907;SDS011;40469;47.998;7.794;2023-07-29T06:32:06;2.33;;;0.90;;
53907;SDS011;40469;47.998;7.794;2023-07-29T06:34:31;2.13;;;1.00;;
53907;SDS011;40469;47.998;7.794;2023-07-29T06:36:57;2.20;;;0.85;;
53907;SDS011;40469;47.998;7.794;2023-07-29T06:39:22;1.63;;;0.73;;
53907;SDS011;40469;47.998;7.794;2023-07-29T06:41:47;4.35;;;1.25;;
53907;SDS011;40469;47.998;7.794;2023-07-29T06:44:13;2.55;;;1.35;;
53907;SDS011;40469;47.998;7.794;2023-07-29T06:46:38;1.05;;;0.70;;
53907;SDS011;40469;47.998;7.794;2023-07-29T06:49:05;2.25;;;0.98;;
53907;SDS011;40469;47.998;7.794;2023-07-29T06:51:30;2.38;;;1.00;;
53907;SDS011;40469;47.998;7.794;2023-07-29T06:53:59;2.25;;;0.95;;
53907;SDS011;40469;47.998;7.794;2023-07-29T06:56:24;3.92;;;1.17;;
53907;SDS011;40469;47.998;7.794;2023-07-29T06:58:50;3.63;;;1.58;;
53907;SDS011;40469;47.998;7.794;2023-07-29T07:01:15;2.38;;;1.30;;
53907;SDS011;40469;47.998;7.794;2023-07-29T07:03:40;4.20;;;1.40;;
53907;SDS011;40469;47.998;7.794;2023-07-29T07:06:06;2.92;;;1.60;;
53907;SDS011;40469;47.998;7.794;2023-07-29T07:08:31;3.63;;;1.45;;
53907;SDS011;40469;47.998;7.794;2023-07-29T07:10:56;4.38;;;1.83;;
53907;SDS011;40469;47.998;7.794;2023-07-29T07:13:22;3.60;;;1.67;;
53907;SDS011;40469;47.998;7.794;2023-07-29T07:15:47;2.65;;;1.38;;
53907;SDS011;40469;47.998;7.794;2023-07-29T07:18:12;3.20;;;1.40;;
53907;SDS011;40469;47.998;7.794;2023-07-29T07:20:38;6.80;;;1.70;;
53907;SDS011;40469;47.998;7.794;2023-07-29T07:23:03;4.10;;;1.80;;
53907;SDS011;40469;47.998;7.794;2023-07-29T07:25:30;2.90;;;1.38;;
53907;SDS011;40469;47.998;7.794;2023-07-29T07:27:56;3.67;;;1.63;;
53907;SDS011;40469;47.998;7.794;2023-07-29T07:30:21;2.92;;;1.48;;
53907;SDS011;40469;47.998;7.794;2023-07-29T07:32:46;4.55;;;1.40;;
53907;SDS011;40469;47.998;7.794;2023-07-29T07:35:12;2.47;;;1.40;;
53907;SDS011;40469;47.998;7.794;2023-07-29T07:37:37;2.15;;;1.10;;
53907;SDS011;40469;47.998;7.794;2023-07-29T07:40:03;2.55;;;1.27;;
53907;SDS011;40469;47.998;7.794;2023-07-29T07:42:29;2.08;;;1.20;;
53907;SDS011;40469;47.998;7.794;2023-07-29T07:44:54;3.28;;;1.30;;
53907;SDS011;40469;47.998;7.794;2023-07-29T07:47:19;2.10;;;1.20;;
53907;SDS011;40469;47.998;7.794;2023-07-29T07:49:45;2.35;;;0.95;;
53907;SDS011;40469;47.998;7.794;2023-07-29T07:52:10;2.50;;;1.30;;
53907;SDS011;40469;47.998;7.794;2023-07-29T07:54:35;3.22;;;1.10;;
53907;SDS011;40469;47.998;7.794;2023-07-29T07:57:01;2.28;;;1.20;;
53907;SDS011;40469;47.998;7.794;2023-07-29T07:59:26;1.48;;;1.05;;
53907;SDS011;40469;47.998;7.794;2023-07-29T08:01:51;1.73;;;1.10;;
53907;SDS011;40469;47.998;7.794;2023-07-29T08:04:17;2.65;;;1.25;;
53907;SDS011;40469;47.998;7.794;2023-07-29T08:06:42;1.92;;;1.15;;
53907;SDS011;40469;47.998;7.794;2023-07-29T08:09:08;1.98;;;1.27;;
53907;SDS011;40469;47.998;7.794;2023-07-29T08:11:33;1.45;;;0.88;;
53907;SDS011;40469;47.998;7.794;2023-07-29T08:13:58;1.70;;;1.20;;
53907;SDS011;40469;47.998;7.794;2023-07-29T08:16:24;2.25;;;1.25;;
53907;SDS011;40469;47.998;7.794;2023-07-29T08:18:49;1.17;;;0.85;;
53907;SDS011;40469;47.998;7.794;2023-07-29T08:21:15;2.70;;;1.60;;
53907;SDS011;40469;47.998;7.794;2023-07-29T08:23:40;1.20;;;0.90;;
53907;SDS011;40469;47.998;7.794;2023-07-29T08:26:05;2.17;;;1.30;;
53907;SDS011;40469;47.998;7.794;2023-07-29T08:28:32;5.05;;;0.80;;
53907;SDS011;40469;47.998;7.794;2023-07-29T08:30:58;2.63;;;1.35;;
53907;SDS011;40469;47.998;7.794;2023-07-29T08:33:24;1.33;;;0.75;;
53907;SDS011;40469;47.998;7.794;2023-07-29T08:35:50;5.03;;;1.13;;
53907;SDS011;40469;47.998;7.794;2023-07-29T08:38:15;2.58;;;1.20;;
53907;SDS011;40469;47.998;7.794;2023-07-29T08:41:03;2.30;;;1.30;;
53907;SDS011;40469;47.998;7.794;2023-07-29T08:43:52;1.15;;;0.77;;
53907;SDS011;40469;47.998;7.794;2023-07-29T08:46:31;2.00;;;1.00;;
53907;SDS011;40469;47.998;7.794;2023-07-29T08:48:57;2.35;;;0.98;;
53907;SDS011;40469;47.998;7.794;2023-07-29T08:51:24;3.53;;;1.10;;
53907;SDS011;40469;47.998;7.794;2023-07-29T08:53:50;2.35;;;1.40;;
53907;SDS011;40469;47.998;7.794;2023-07-29T08:56:16;2.58;;;1.30;;
53907;SDS011;40469;47.998;7.794;2023-07-29T08:58:42;3.10;;;1.05;;
53907;SDS011;40469;47.998;7.794;2023-07-29T09:01:08;3.13;;;1.00;;
53907;SDS011;40469;47.998;7.794;2023-07-29T09:03:33;1.67;;;0.80;;
53907;SDS011;40469;47.998;7.794;2023-07-29T09:05:59;2.63;;;1.42;;
53907;SDS011;40469;47.998;7.794;2023-07-29T09:08:26;2.53;;;1.20;;
53907;SDS011;40469;47.998;7.794;2023-07-29T09:10:53;1.55;;;1.00;;
53907;SDS011;40469;47.998;7.794;2023-07-29T09:13:19;3.95;;;1.73;;
53907;SDS011;40469;47.998;7.794;2023-07-29T09:15:45;2.90;;;1.20;;
53907;SDS011;40469;47.998;7.794;2023-07-29T09:18:11;2.38;;;1.02;;
53907;SDS011;40469;47.998;7.794;2023-07-29T09:20:39;1.45;;;1.02;;
53907;SDS011;40469;47.998;7.794;2023-07-29T09:23:07;5.50;;;2.00;;
53907;SDS011;40469;47.998;7.794;2023-07-29T09:25:34;1.95;;;1.08;;
53907;SDS011;40469;47.998;7.794;2023-07-29T09:27:59;1.77;;;1.08;;
53907;SDS011;40469;47.998;7.794;2023-07-29T09:30:25;1.92;;;1.00;;
53907;SDS011;40469;47.998;7.794;2023-07-29T09:32:57;3.70;;;1.42;;
53907;SDS011;40469;47.998;7.794;2023-07-29T09:35:24;1.90;;;1.10;;
53907;SDS011;40469;47.998;7.794;2023-07-29T09:37:52;2.03;;;1.30;;
53907;SDS011;40469;47.998;7.794;2023-07-29T09:40:18;1.80;;;1.20;;
53907;SDS011;40469;47.998;7.794;2023-07-29T09:42:47;2.03;;;1.30;;
53907;SDS011;40469;47.998;7.794;2023-07-29T09:45:23;2.35;;;1.20;;
53907;SDS011;40469;47.998;7.794;2023-07-29T09:47:50;2.38;;;1.35;;
53907;SDS011;40469;47.998;7.794;2023-07-29T09:50:16;3.95;;;1.58;;
53907;SDS011;40469;47.998;7.794;2023-07-29T09:52:42;2.35;;;1.50;;
53907;SDS011;40469;47.998;7.794;2023-07-29T09:55:12;2.22;;;1.10;;
53907;SDS011;40469;47.998;7.794;2023-07-29T09:57:40;3.00;;;1.70;;
53907;SDS011;40469;47.998;7.794;2023-07-29T10:00:06;2.55;;;1.30;;
53907;SDS011;40469;47.998;7.794;2023-07-29T10:02:35;2.28;;;1.30;;
53907;SDS011;40469;47.998;7.794;2023-07-29T10:05:02;2.00;;;1.33;;
53907;SDS011;40469;47.998;7.794;2023-07-29T10:07:28;1.70;;;1.00;;
53907;SDS011;40469;47.998;7.794;2023-07-29T10:09:55;1.42;;;0.73;;
53907;SDS011;40469;47.998;7.794;2023-07-29T10:12:22;3.00;;;1.40;;
53907;SDS011;40469;47.998;7.794;2023-07-29T10:14:49;1.95;;;1.10;;
53907;SDS011;40469;47.998;7.794;2023-07-29T10:17:15;4.40;;;1.60;;
53907;SDS011;40469;47.998;7.794;2023-07-29T10:19:41;3.10;;;1.23;;
53907;SDS011;40469;47.998;7.794;2023-07-29T10:22:07;1.98;;;1.30;;
53907;SDS011;40469;47.998;7.794;2023-07-29T10:24:35;3.63;;;1.13;;
53907;SDS011;40469;47.998;7.794;2023-07-29T10:27:06;3.60;;;1.48;;
53907;SDS011;40469;47.998;7.794;2023-07-29T10:29:36;2.05;;;1.20;;
53907;SDS011;40469;47.998;7.794;2023-07-29T10:32:03;1.88;;;1.30;;
53907;SDS011;40469;47.998;7.794;2023-07-29T10:34:30;2.35;;;1.30;;
53907;SDS011;40469;47.998;7.794;2023-07-29T10:36:56;2.10;;;1.25;;
53907;SDS011;40469;47.998;7.794;2023-07-29T10:39:24;2.65;;;1.52;;
53907;SDS011;40469;47.998;7.794;2023-07-29T10:42:03;3.22;;;1.40;;
53907;SDS011;40469;47.998;7.794;2023-07-29T10:47:22;2.15;;;0.90;;
53907;SDS011;40469;47.998;7.794;2023-07-29T10:49:50;2.45;;;1.20;;
53907;SDS011;40469;47.998;7.794;2023-07-29T10:55:01;2.25;;;1.17;;
53907;SDS011;40469;47.998;7.794;2023-07-29T10:57:37;1.50;;;0.80;;
53907;SDS011;40469;47.998;7.794;2023-07-29T11:00:06;2.15;;;1.10;;
53907;SDS011;40469;47.998;7.794;2023-07-29T11:02:35;2.47;;;1.17;;
53907;SDS011;40469;47.998;7.794;2023-07-29T11:05:08;0.95;;;0.70;;
53907;SDS011;40469;47.998;7.794;2023-07-29T11:07:45;1.95;;;1.02;;
53907;SDS011;40469;47.998;7.794;2023-07-29T11:10:12;1.52;;;0.90;;
53907;SDS011;40469;47.998;7.794;2023-07-29T11:12:51;1.75;;;0.80;;
53907;SDS011;40469;47.998;7.794;2023-07-29T11:17:58;1.98;;;1.20;;
53907;SDS011;40469;47.998;7.794;2023-07-29T11:20:26;2.25;;;1.08;;
53907;SDS011;40469;47.998;7.794;2023-07-29T11:22:53;1.85;;;1.10;;
53907;SDS011;40469;47.998;7.794;2023-07-29T11:25:20;3.35;;;1.40;;
53907;SDS011;40469;47.998;7.794;2023-07-29T11:27:47;1.45;;;0.85;;
53907;SDS011;40469;47.998;7.794;2023-07-29T11:30:14;2.85;;;1.17;;
53907;SDS011;40469;47.998;7.794;2023-07-29T11:32:41;2.03;;;0.90;;
53907;SDS011;40469;47.998;7.794;2023-07-29T11:35:08;5.65;;;1.10;;
53907;SDS011;40469;47.998;7.794;2023-07-29T11:37:35;1.08;;;0.60;;
53907;SDS011;40469;47.998;7.794;2023-07-29T11:40:02;1.90;;;1.00;;
53907;SDS011;40469;47.998;7.794;2023-07-29T11:42:31;3.15;;;1.05;;
53907;SDS011;40469;47.998;7.794;2023-07-29T11:44:57;2.13;;;1.13;;
53907;SDS011;40469;47.998;7.794;2023-07-29T11:47:23;1.35;;;0.80;;
53907;SDS011;40469;47.998;7.794;2023-07-29T11:49:49;1.58;;;0.82;;
53907;SDS011;40469;47.998;7.794;2023-07-29T11:52:14;3.05;;;0.75;;
53907;SDS011;40469;47.998;7.794;2023-07-29T11:54:43;2.10;;;0.95;;
53907;SDS011;40469;47.998;7.794;2023-07-29T11:57:09;2.95;;;1.10;;
53907;SDS011;40469;47.998;7.794;2023-07-29T11:59:35;2.28;;;0.82;;
53907;SDS011;40469;47.998;7.794;2023-07-29T12:02:05;1.33;;;0.80;;
53907;SDS011;40469;47.998;7.794;2023-07-29T12:04:34;1.30;;;0.75;;
53907;SDS011;40469;47.998;7.794;2023-07-29T12:07:00;1.67;;;0.88;;
53907;SDS011;40469;47.998;7.794;2023-07-29T12:09:27;2.05;;;0.93;;
53907;SDS011;40469;47.998;7.794;2023-07-29T12:11:53;2.67;;;0.80;;
53907;SDS011;40469;47.998;7.794;2023-07-29T12:14:19;1.95;;;1.08;;
53907;SDS011;40469;47.998;7.794;2023-07-29T12:16:47;2.05;;;1.20;;
53907;SDS011;40469;47.998;7.794;2023-07-29T12:19:13;1.67;;;0.80;;
53907;SDS011;40469;47.998;7.794;2023-07-29T12:21:40;2.00;;;0.70;;
53907;SDS011;40469;47.998;7.794;2023-07-29T12:24:06;1.70;;;0.90;;
53907;SDS011;40469;47.998;7.794;2023-07-29T12:26:32;1.23;;;0.77;;
53907;SDS011;40469;47.998;7.794;2023-07-29T12:28:57;1.48;;;0.70;;
53907;SDS011;40469;47.998;7.794;2023-07-29T12:31:32;1.23;;;0.80;;
53907;SDS011;40469;47.998;7.794;2023-07-29T12:33:58;1.50;;;0.90;;
53907;SDS011;40469;47.998;7.794;2023-07-29T12:36:27;1.45;;;0.82;;
53907;SDS011;40469;47.998;7.794;2023-07-29T12:39:05;1.60;;;0.80;;
53907;SDS011;40469;47.998;7.794;2023-07-29T12:41:30;1.92;;;0.90;;
53907;SDS011;40469;47.998;7.794;2023-07-29T12:43:56;1.63;;;0.80;;
53907;SDS011;40469;47.998;7.794;2023-07-29T12:46:21;1.45;;;0.90;;
53907;SDS011;40469;47.998;7.794;2023-07-29T12:48:46;1.52;;;0.77;;
53907;SDS011;40469;47.998;7.794;2023-07-29T12:51:12;1.90;;;0.90;;
53907;SDS011;40469;47.998;7.794;2023-07-29T12:53:37;1.60;;;0.90;;
53907;SDS011;40469;47.998;7.794;2023-07-29T12:56:03;2.58;;;0.90;;
53907;SDS011;40469;47.998;7.794;2023-07-29T12:58:28;2.67;;;1.00;;
53907;SDS011;40469;47.998;7.794;2023-07-29T13:00:53;1.58;;;0.75;;
53907;SDS011;40469;47.998;7.794;2023-07-29T13:03:19;1.75;;;0.65;;
53907;SDS011;40469;47.998;7.794;2023-07-29T13:05:44;2.30;;;0.95;;
53907;SDS011;40469;47.998;7.794;2023-07-29T13:08:10;3.03;;;1.20;;
53907;SDS011;40469;47.998;7.794;2023-07-29T13:10:35;1.10;;;0.70;;
53907;SDS011;40469;47.998;7.794;2023-07-29T13:13:01;1.52;;;1.02;;
53907;SDS011;40469;47.998;7.794;2023-07-29T13:15:26;1.33;;;0.90;;
53907;SDS011;40469;47.998;7.794;2023-07-29T13:17:51;1.60;;;0.80;;
53907;SDS011;40469;47.998;7.794;2023-07-29T13:20:16;1.88;;;0.98;;
53907;SDS011;40469;47.998;7.794;2023-07-29T13:22:42;4.40;;;0.95;;
53907;SDS011;40469;47.998;7.794;2023-07-29T13:25:07;1.92;;;0.93;;
53907;SDS011;40469;47.998;7.794;2023-07-29T13:27:33;1.73;;;1.08;;
53907;SDS011;40469;47.998;7.794;2023-07-29T13:29:58;1.00;;;0.65;;
53907;SDS011;40469;47.998;7.794;2023-07-29T13:32:23;1.95;;;0.90;;
53907;SDS011;40469;47.998;7.794;2023-07-29T13:34:49;1.30;;;0.65;;
53907;SDS011;40469;47.998;7.794;2023-07-29T13:37:14;1.75;;;0.80;;
53907;SDS011;40469;47.998;7.794;2023-07-29T13:39:39;1.50;;;0.60;;
53907;SDS011;40469;47.998;7.794;2023-07-29T13:42:05;1.65;;;0.80;;
53907;SDS011;40469;47.998;7.794;2023-07-29T13:44:30;2.38;;;1.05;;
53907;SDS011;40469;47.998;7.794;2023-07-29T13:46:56;1.80;;;0.90;;
53907;SDS011;40469;47.998;7.794;2023-07-29T13:49:21;1.75;;;0.73;;
53907;SDS011;40469;47.998;7.794;2023-07-29T13:51:46;2.83;;;0.93;;
53907;SDS011;40469;47.998;7.794;2023-07-29T13:54:12;2.58;;;0.95;;
53907;SDS011;40469;47.998;7.794;2023-07-29T13:56:37;3.08;;;0.80;;
53907;SDS011;40469;47.998;7.794;2023-07-29T13:59:03;2.22;;;0.80;;
53907;SDS011;40469;47.998;7.794;2023-07-29T14:01:28;2.15;;;1.10;;
53907;SDS011;40469;47.998;7.794;2023-07-29T14:03:53;2.88;;;0.90;;
53907;SDS011;40469;47.998;7.794;2023-07-29T14:06:19;1.92;;;0.70;;
53907;SDS011;40469;47.998;7.794;2023-07-29T14:08:44;1.50;;;0.70;;
53907;SDS011;40469;47.998;7.794;2023-07-29T14:11:09;1.35;;;0.90;;
53907;SDS011;40469;47.998;7.794;2023-07-29T14:13:35;1.88;;;0.90;;
53907;SDS011;40469;47.998;7.794;2023-07-29T14:16:03;1.50;;;0.70;;
53907;SDS011;40469;47.998;7.794;2023-07-29T14:18:30;1.95;;;0.80;;
53907;SDS011;40469;47.998;7.794;2023-07-29T14:20:55;1.83;;;0.82;;
53907;SDS011;40469;47.998;7.794;2023-07-29T14:23:20;2.83;;;0.90;;
53907;SDS011;40469;47.998;7.794;2023-07-29T14:25:46;3.53;;;1.08;;
53907;SDS011;40469;47.998;7.794;2023-07-29T14:28:12;2.30;;;1.00;;
53907;SDS011;40469;47.998;7.794;2023-07-29T14:30:38;2.20;;;1.15;;
53907;SDS011;40469;47.998;7.794;2023-07-29T14:33:05;2.80;;;1.10;;
53907;SDS011;40469;47.998;7.794;2023-07-29T14:35:31;2.58;;;1.23;;
53907;SDS011;40469;47.998;7.794;2023-07-29T14:37:56;3.03;;;1.27;;
53907;SDS011;40469;47.998;7.794;2023-07-29T14:40:22;3.08;;;1.33;;
53907;SDS011;40469;47.998;7.794;2023-07-29T14:42:47;4.22;;;1.20;;
53907;SDS011;40469;47.998;7.794;2023-07-29T14:45:12;5.18;;;2.17;;
53907;SDS011;40469;47.998;7.794;2023-07-29T14:47:38;2.28;;;1.30;;
53907;SDS011;40469;47.998;7.794;2023-07-29T14:50:03;2.22;;;1.17;;
53907;SDS011;40469;47.998;7.794;2023-07-29T14:52:29;2.35;;;1.38;;
53907;SDS011;40469;47.998;7.794;2023-07-29T14:54:54;3.00;;;1.40;;
53907;SDS011;40469;47.998;7.794;2023-07-29T14:57:20;4.45;;;1.13;;
53907;SDS011;40469;47.998;7.794;2023-07-29T14:59:45;3.55;;;1.30;;